Time;durP1;ratioP1;P1;durP2;ratioP2;P2;SDS_P1;SDS_P2;PMS_P1;PMS_P2;Temp;Humidity;BMP_temperature;BMP_pressure;BME280_temperature;BME280_humidity;BME280_pressure;Samples;Min_cycle;Max_cycle;Signal;HPM_P1;HPM_P2
2021/06/04 00:01:10;;;;;;;18.42;9.95;;;;;;;13.57;59.05;100930.94;5040734;28;20033;-71
2021/06/04 00:03:37;;;;;;;14.48;9.55;;;;;;;13.53;59.24;100924.16;5043458;28;20121;-73
2021/06/04 00:06:05;;;;;;;17.05;10.68;;;;;;;13.50;59.06;100927.03;5040200;28;20045;-71
2021/06/04 00:08:33;;;;;;;17.38;8.73;;;;;;;13.45;59.20;100929.22;5040311;28;20052;-72
2021/06/04 00:11:03;;;;;;;16.23;9.43;;;;;;;13.40;59.29;100923.41;5038220;28;20488;-75
2021/06/04 00:13:35;;;;;;;15.75;10.52;;;;;;;13.34;59.63;100922.06;5038130;28;20548;-72
2021/06/04 00:16:06;;;;;;;14.10;9.82;;;;;;;13.33;59.66;100922.16;5037164;28;20128;-72
2021/06/04 00:18:37;;;;;;;16.85;10.15;;;;;;;13.32;59.29;100928.41;5037050;28;20053;-73
2021/06/04 00:21:07;;;;;;;13.50;9.63;;;;;;;13.27;59.48;100926.09;5036390;28;20053;-74
2021/06/04 00:23:36;;;;;;;14.05;9.02;;;;;;;13.25;59.45;100921.81;5036180;28;20056;-75
2021/06/04 00:26:03;;;;;;;15.45;9.00;;;;;;;13.19;59.58;100916.00;5037297;28;20045;-74
2021/06/04 00:28:30;;;;;;;22.20;9.35;;;;;;;13.13;59.82;100926.25;5039235;28;20053;-79
2021/06/04 00:30:57;;;;;;;15.25;9.32;;;;;;;13.03;60.12;100931.34;5040549;28;20382;-76
2021/06/04 00:33:24;;;;;;;12.45;8.52;;;;;;;12.94;60.49;100929.34;5038662;28;20049;-72
2021/06/04 00:35:52;;;;;;;13.60;9.60;;;;;;;12.86;60.63;100929.91;5036599;28;20052;-74
2021/06/04 00:38:19;;;;;;;12.90;8.57;;;;;;;12.86;60.53;100926.41;5040958;28;20107;-71
2021/06/04 00:40:49;;;;;;;13.95;7.78;;;;;;;12.85;60.30;100932.66;5042898;28;20045;-75
2021/06/04 00:43:16;;;;;;;15.15;8.25;;;;;;;12.83;60.37;100935.41;5044554;28;20110;-76
2021/06/04 00:45:48;;;;;;;11.43;7.10;;;;;;;12.80;60.13;100935.63;5042808;28;20064;-77
2021/06/04 00:48:15;;;;;;;15.55;8.30;;;;;;;12.80;60.20;100931.19;5042557;28;20071;-73
2021/06/04 00:50:48;;;;;;;13.32;7.97;;;;;;;12.79;60.21;100931.31;5045158;28;20053;-77
2021/06/04 00:53:17;;;;;;;16.33;9.07;;;;;;;12.79;60.15;100936.59;5044524;28;20055;-70
2021/06/04 00:55:46;;;;;;;10.93;6.93;;;;;;;12.77;60.40;100935.88;5044927;28;20112;-74
2021/06/04 00:58:18;;;;;;;11.80;7.88;;;;;;;12.77;60.20;100934.06;5041910;28;20497;-73
2021/06/04 01:00:50;;;;;;;12.68;9.07;;;;;;;12.78;60.18;100937.53;5040327;28;20126;-74
2021/06/04 01:03:18;;;;;;;10.43;7.78;;;;;;;12.76;60.22;100927.03;5041845;28;20052;-72
2021/06/04 01:05:46;;;;;;;13.93;8.23;;;;;;;12.75;60.36;100922.72;5042691;28;20140;-75
2021/06/04 01:08:30;;;;;;;14.10;8.18;;;;;;;12.75;60.53;100925.38;5043731;28;20050;-71
2021/06/04 01:11:13;;;;;;;11.93;8.52;;;;;;;12.74;60.36;100925.47;5041035;28;20053;-73
2021/06/04 01:13:57;;;;;;;13.10;8.82;;;;;;;12.73;60.42;100919.34;5042779;28;20153;-73
2021/06/04 01:16:30;;;;;;;18.98;8.07;;;;;;;12.74;60.34;100925.47;5042303;28;20057;-71
2021/06/04 01:19:20;;;;;;;15.25;9.43;;;;;;;12.74;60.67;100923.66;5041936;28;20790;-75
2021/06/04 01:21:50;;;;;;;13.00;8.40;;;;;;;12.74;60.29;100920.19;5041191;28;20080;-72
2021/06/04 01:24:29;;;;;;;13.55;7.88;;;;;;;12.74;60.58;100921.00;5042130;28;20057;-74
2021/06/04 01:27:03;;;;;;;15.38;8.63;;;;;;;12.74;60.41;100915.72;5041808;28;20042;-74
2021/06/04 01:29:36;;;;;;;17.98;8.48;;;;;;;12.73;60.36;100921.13;5046185;28;20104;-70
2021/06/04 01:32:10;;;;;;;12.55;8.48;;;;;;;12.70;60.11;100924.00;5044348;28;20037;-72
2021/06/04 01:34:43;;;;;;;12.85;7.50;;;;;;;12.64;60.03;100917.34;5045393;28;20079;-73
2021/06/04 01:37:13;;;;;;;11.10;7.15;;;;;;;12.56;60.17;100924.97;5040567;28;20037;-71
2021/06/04 01:39:43;;;;;;;11.90;8.10;;;;;;;12.51;60.20;100924.44;5036725;28;20405;-79
2021/06/04 01:42:15;;;;;;;13.45;8.70;;;;;;;12.47;60.56;100921.16;5036445;28;20433;-78
2021/06/04 01:44:46;;;;;;;19.48;9.75;;;;;;;12.47;60.67;100925.63;5036604;28;20045;-81
2021/06/04 01:47:17;;;;;;;16.75;9.68;;;;;;;12.46;60.96;100926.56;5035343;28;20054;-80
2021/06/04 01:49:48;;;;;;;14.98;9.95;;;;;;;12.45;61.30;100923.06;5033809;28;20049;-78
2021/06/04 01:52:19;;;;;;;16.80;10.43;;;;;;;12.45;61.38;100922.22;5037180;28;20128;-77
2021/06/04 01:54:50;;;;;;;13.40;9.10;;;;;;;12.45;61.37;100915.13;5035794;28;20485;-71
2021/06/04 01:57:24;;;;;;;13.30;8.70;;;;;;;12.46;61.27;100910.66;5032622;28;20102;-72
2021/06/04 01:59:52;;;;;;;10.77;8.23;;;;;;;12.40;60.70;100920.72;5031629;28;20057;-70
2021/06/04 02:02:20;;;;;;;10.52;8.07;;;;;;;12.32;60.71;100920.44;5036175;28;20285;-75
2021/06/04 02:04:55;;;;;;;13.07;8.32;;;;;;;12.25;61.04;100921.81;5037392;28;20124;-75
2021/06/04 02:07:26;;;;;;;11.05;8.75;;;;;;;12.18;61.08;100915.22;5035453;28;20046;-70
2021/06/04 02:09:53;;;;;;;15.27;8.57;;;;;;;12.10;61.23;100925.50;5036720;28;20046;-77
2021/06/04 02:12:21;;;;;;;14.38;9.05;;;;;;;12.05;61.38;100920.53;5036998;28;20091;-71
2021/06/04 02:14:51;;;;;;;13.75;8.40;;;;;;;12.04;61.36;100922.31;5038624;28;20045;-70
2021/06/04 02:17:28;;;;;;;10.57;8.00;;;;;;;12.05;61.39;100929.31;5035843;28;20049;-77
2021/06/04 02:20:08;;;;;;;15.15;8.80;;;;;;;12.05;61.42;100923.16;5033819;28;20049;-73
2021/06/04 02:22:52;;;;;;;13.95;9.88;;;;;;;12.07;61.25;100920.44;5038332;28;20050;-76
2021/06/04 02:25:27;;;;;;;11.65;8.02;;;;;;;12.02;61.30;100916.25;5038527;28;20055;-71
2021/06/04 02:28:01;;;;;;;15.15;9.23;;;;;;;12.03;61.13;100919.78;5035345;28;20054;-76
2021/06/04 02:30:34;;;;;;;12.75;9.20;;;;;;;11.99;61.18;100924.44;5033962;28;20087;-76
2021/06/04 02:33:08;;;;;;;16.25;9.23;;;;;;;11.96;61.19;100929.09;5037491;28;20067;-73
2021/06/04 02:35:37;;;;;;;11.43;8.27;;;;;;;11.92;61.24;100917.88;5038203;28;20049;-78
2021/06/04 02:38:11;;;;;;;12.27;7.93;;;;;;;11.92;61.05;100927.59;5037511;28;20052;-75
2021/06/04 02:40:42;;;;;;;9.57;7.68;;;;;;;11.88;60.76;100920.78;5039714;28;20067;-76
2021/06/04 02:43:13;;;;;;;13.48;8.15;;;;;;;11.84;60.97;100925.44;5041213;28;20045;-76
2021/06/04 02:45:42;;;;;;;12.43;9.20;;;;;;;11.82;61.16;100922.88;5039109;28;20053;-77
2021/06/04 02:48:13;;;;;;;14.50;9.27;;;;;;;11.85;61.19;100927.13;5035967;28;20106;-73
2021/06/04 02:50:42;;;;;;;11.70;8.88;;;;;;;11.90;61.53;100930.31;5038632;28;20052;-72
2021/06/04 02:53:21;;;;;;;13.38;9.27;;;;;;;11.96;61.45;100929.94;5040552;28;20045;-76
2021/06/04 02:56:14;;;;;;;15.73;9.10;;;;;;;12.06;61.48;100924.84;5038305;28;20075;-74
2021/06/04 02:58:45;;;;;;;12.02;8.73;;;;;;;12.11;61.62;100929.84;5038088;28;20106;-72
2021/06/04 03:01:15;;;;;;;14.85;9.98;;;;;;;12.13;61.75;100923.47;5040017;28;20142;-76
2021/06/04 03:03:43;;;;;;;13.02;9.07;;;;;;;12.18;61.98;100931.13;5041583;28;20101;-70
2021/06/04 03:06:11;;;;;;;15.73;7.88;;;;;;;12.20;61.61;100931.88;5041194;28;20112;-73
2021/06/04 03:08:38;;;;;;;12.50;8.35;;;;;;;12.19;61.47;100919.56;5041648;28;20042;-73
2021/06/04 03:11:07;;;;;;;11.63;8.60;;;;;;;12.19;61.61;100931.03;5040993;28;20069;-78
2021/06/04 03:13:36;;;;;;;20.98;8.55;;;;;;;12.23;61.50;100926.38;5042283;28;20045;-72
2021/06/04 03:16:07;;;;;;;15.00;10.43;;;;;;;12.29;61.66;100925.09;5040982;28;20377;-71
2021/06/04 03:18:36;;;;;;;19.27;11.18;;;;;;;12.36;61.78;100929.84;5035487;28;20434;-72
2021/06/04 03:21:05;;;;;;;13.27;9.40;;;;;;;12.42;61.80;100932.09;5039450;28;20132;-73
2021/06/04 03:23:36;;;;;;;14.90;9.55;;;;;;;12.49;61.76;100936.94;5043793;28;20120;-79
2021/06/04 03:26:09;;;;;;;16.13;9.25;;;;;;;12.55;61.69;100926.78;5040214;28;20489;-71
2021/06/04 03:28:38;;;;;;;15.63;10.63;;;;;;;12.61;61.54;100930.81;5038855;28;20084;-74
2021/06/04 03:31:09;;;;;;;12.13;7.70;;;;;;;12.70;61.49;100930.16;5039226;28;20049;-73
2021/06/04 03:33:37;;;;;;;11.75;8.52;;;;;;;12.76;61.39;100927.03;5035255;28;20079;-75
2021/06/04 03:36:07;;;;;;;12.73;8.75;;;;;;;12.86;61.21;100924.59;5030794;28;20049;-75
2021/06/04 03:38:34;;;;;;;14.30;9.90;;;;;;;12.94;61.23;100926.69;5014219;28;20045;-74
2021/06/04 03:41:01;;;;;;;12.63;8.57;;;;;;;13.01;61.22;100933.25;5039721;28;20045;-76
2021/06/04 03:43:29;;;;;;;12.30;9.40;;;;;;;13.07;61.07;100926.66;5039546;28;20054;-75
2021/06/04 03:45:56;;;;;;;15.52;9.63;;;;;;;13.11;61.04;100923.69;5040008;28;20054;-71
2021/06/04 03:48:27;;;;;;;12.65;7.30;;;;;;;13.18;60.75;100930.25;5036997;28;20132;-71
2021/06/04 03:50:58;;;;;;;11.70;9.68;;;;;;;13.23;60.90;100923.75;5033635;28;20045;-78
2021/06/04 03:53:26;;;;;;;16.42;9.50;;;;;;;13.28;60.85;100930.41;5033883;28;20045;-77
2021/06/04 03:55:53;;;;;;;19.95;10.00;;;;;;;13.38;60.73;100938.59;5033530;28;20381;-71
2021/06/04 03:58:21;;;;;;;14.57;9.68;;;;;;;13.49;60.45;100930.69;5035010;28;20057;-73
2021/06/04 04:00:51;;;;;;;9.80;6.85;;;;;;;13.64;60.02;100925.19;5041628;28;20114;-69
2021/06/04 04:03:21;;;;;;;13.05;8.02;;;;;;;13.76;59.76;100930.44;5057262;28;20091;-75
2021/06/04 04:05:52;;;;;;;12.10;7.82;;;;;;;13.90;59.44;100925.88;5057920;28;20073;-76
2021/06/04 04:08:21;;;;;;;11.68;7.43;;;;;;;14.00;59.22;100928.69;5055841;28;20041;-77
2021/06/04 04:10:48;;;;;;;12.05;7.70;;;;;;;14.08;58.97;100931.59;5056327;28;20094;-70
2021/06/04 04:13:17;;;;;;;13.55;8.35;;;;;;;14.21;59.07;100929.69;5060189;28;20064;-78
2021/06/04 04:15:44;;;;;;;11.60;7.43;;;;;;;14.37;58.68;100933.81;5061444;28;20041;-81
2021/06/04 04:18:11;;;;;;;9.75;7.10;;;;;;;14.49;58.35;100928.38;5042921;28;20049;-73
2021/06/04 04:20:42;;;;;;;12.73;7.78;;;;;;;14.62;58.35;100932.78;5046042;28;20058;-76
2021/06/04 04:23:12;;;;;;;16.58;7.28;;;;;;;14.74;58.40;100933.63;5045694;28;20048;-75
2021/06/04 04:25:44;;;;;;;15.40;7.85;;;;;;;14.93;57.92;100931.19;5065245;28;20182;-81
2021/06/04 04:28:15;;;;;;;12.35;7.93;;;;;;;15.11;57.68;100928.88;5062713;28;20084;-81
2021/06/04 04:30:41;;;;;;;12.82;8.43;;;;;;;15.23;57.46;100924.34;5064668;28;20049;-80
2021/06/04 04:33:09;;;;;;;12.23;8.15;;;;;;;15.38;57.47;100925.78;5066928;28;20045;-71
2021/06/04 04:35:37;;;;;;;12.38;8.40;;;;;;;15.54;57.43;100927.16;5072258;28;20112;-80
2021/06/04 04:38:05;;;;;;;13.40;7.85;;;;;;;15.69;57.08;100933.88;5071393;28;20049;-73
2021/06/04 04:40:36;;;;;;;13.82;7.63;;;;;;;16.23;56.21;100926.72;5072577;28;20033;-73
2021/06/04 04:43:04;;;;;;;9.55;6.85;;;;;;;17.86;52.21;100919.44;5072617;28;20033;-73
2021/06/04 04:45:31;;;;;;;9.48;7.60;;;;;;;19.62;48.43;100922.16;5072645;28;20041;-72
2021/06/04 04:47:59;;;;;;;10.82;7.65;;;;;;;21.23;45.50;100917.22;5073507;28;20059;-74
2021/06/04 04:50:26;;;;;;;10.43;7.38;;;;;;;22.63;42.59;100916.16;5070520;28;20037;-72
2021/06/04 04:52:54;;;;;;;12.95;8.32;;;;;;;23.76;40.63;100914.00;5067799;28;20052;-71
2021/06/04 04:55:23;;;;;;;8.88;7.28;;;;;;;24.61;39.47;100915.56;5053680;28;20052;-76
2021/06/04 04:57:51;;;;;;;8.90;6.47;;;;;;;25.29;38.51;100908.06;5058463;28;20041;-76
2021/06/04 05:00:21;;;;;;;10.43;6.38;;;;;;;26.06;37.14;100914.59;5054243;28;20053;-71
2021/06/04 05:02:47;;;;;;;8.82;6.85;;;;;;;26.65;35.72;100916.03;5052278;28;20045;-73
2021/06/04 05:05:14;;;;;;;10.30;6.30;;;;;;;27.26;35.09;100911.63;5050248;28;20132;-76
2021/06/04 05:07:41;;;;;;;9.38;6.63;;;;;;;27.77;33.79;100913.00;5057008;28;20041;-74
2021/06/04 05:10:10;;;;;;;10.10;5.45;;;;;;;28.15;33.02;100917.81;5058217;28;20055;-72
2021/06/04 05:12:37;;;;;;;7.95;6.25;;;;;;;28.50;32.44;100915.63;5026064;28;20066;-69
2021/06/04 05:15:08;;;;;;;9.02;5.82;;;;;;;28.85;32.01;100923.47;5058193;28;20570;-73
2021/06/04 05:17:34;;;;;;;10.40;5.63;;;;;;;29.15;31.46;100920.22;5047650;28;20049;-70
2021/06/04 05:20:01;;;;;;;12.27;5.53;;;;;;;29.45;30.28;100904.13;5045211;28;20048;-73
2021/06/04 05:22:28;;;;;;;8.27;5.50;;;;;;;29.87;30.08;100909.03;5044764;28;20079;-71
2021/06/04 05:24:54;;;;;;;7.20;5.38;;;;;;;30.25;29.68;100906.16;5044671;28;20045;-72
2021/06/04 05:27:20;;;;;;;8.90;6.55;;;;;;;30.57;29.28;100913.38;5058542;28;20044;-72
2021/06/04 05:29:47;;;;;;;11.65;5.25;;;;;;;30.81;28.68;100903.44;5060113;28;20132;-75
2021/06/04 05:32:15;;;;;;;9.95;5.40;;;;;;;30.98;28.24;100901.75;5049748;28;20497;-78
2021/06/04 05:34:42;;;;;;;7.00;5.50;;;;;;;31.22;27.91;100904.56;5048691;28;20502;-78
2021/06/04 05:37:08;;;;;;;6.82;4.68;;;;;;;31.52;27.94;100903.75;5049240;28;20049;-71
2021/06/04 05:39:38;;;;;;;12.07;4.75;;;;;;;31.67;27.19;100904.09;5046948;28;20068;-72
2021/06/04 05:42:06;;;;;;;6.10;3.95;;;;;;;31.67;26.66;100906.84;5046580;28;20138;-72
2021/06/04 05:44:34;;;;;;;6.95;4.07;;;;;;;31.55;26.62;100908.75;5042784;28;20049;-71
2021/06/04 05:47:05;;;;;;;6.93;4.50;;;;;;;31.41;26.41;100914.38;5032310;28;20414;-73
2021/06/04 05:49:34;;;;;;;7.13;3.58;;;;;;;31.44;26.09;100910.34;5025486;28;20125;-73
2021/06/04 05:52:08;;;;;;;9.00;4.25;;;;;;;31.51;25.64;100910.25;5030494;28;20045;-76
2021/06/04 05:54:35;;;;;;;5.63;4.22;;;;;;;31.74;26.12;100920.38;5040893;28;20083;-73
2021/06/04 05:57:02;;;;;;;5.95;3.72;;;;;;;31.89;25.30;100914.44;5028755;28;20493;-75
2021/06/04 05:59:29;;;;;;;5.20;3.72;;;;;;;30.94;26.32;100921.56;5029708;28;20060;-78
2021/06/04 06:01:55;;;;;;;6.22;4.05;;;;;;;29.46;27.21;100922.13;5031107;28;20092;-78
2021/06/04 06:04:24;;;;;;;6.22;3.63;;;;;;;28.13;28.46;100926.16;5035462;28;20052;-78
2021/06/04 06:06:53;;;;;;;5.53;3.67;;;;;;;27.06;29.69;100920.59;5034400;28;20426;-71
2021/06/04 06:09:20;;;;;;;5.65;3.47;;;;;;;26.28;30.94;100922.66;5037535;28;20045;-80
2021/06/04 06:11:48;;;;;;;7.45;4.28;;;;;;;25.85;31.14;100928.16;5039686;28;20627;-75
2021/06/04 06:14:16;;;;;;;6.40;3.80;;;;;;;25.50;31.07;100930.75;5038428;28;20102;-77
2021/06/04 06:16:43;;;;;;;6.30;3.90;;;;;;;25.17;31.64;100931.19;5040187;28;20466;-74
2021/06/04 06:19:12;;;;;;;7.47;4.45;;;;;;;25.16;31.88;100932.25;5040763;28;20413;-74
2021/06/04 06:21:40;;;;;;;8.65;4.03;;;;;;;26.04;30.74;100930.22;5037279;28;20444;-74
2021/06/04 06:24:13;;;;;;;6.55;4.00;;;;;;;27.25;30.10;100924.38;5039946;28;20037;-72
2021/06/04 06:26:40;;;;;;;9.57;4.05;;;;;;;28.29;28.15;100933.03;5032991;28;20057;-71
2021/06/04 06:29:09;;;;;;;7.22;3.65;;;;;;;29.05;27.29;100931.53;5038216;28;20045;-80
2021/06/04 06:31:40;;;;;;;6.35;4.07;;;;;;;29.45;27.37;100934.03;5046006;28;20728;-81
2021/06/04 06:34:08;;;;;;;6.93;3.88;;;;;;;29.70;26.30;100934.06;5038528;28;20634;-76
2021/06/04 06:36:37;;;;;;;9.57;4.53;;;;;;;29.55;26.07;100934.41;5042529;28;20071;-76
2021/06/04 06:39:08;;;;;;;4.97;3.70;;;;;;;29.26;27.38;100937.72;5038664;28;20068;-75
2021/06/04 06:41:38;;;;;;;6.57;4.20;;;;;;;29.40;27.00;100936.59;5034122;28;20592;-83
2021/06/04 06:44:05;;;;;;;8.45;4.15;;;;;;;29.44;26.97;100926.94;5033925;28;20046;-73
2021/06/04 06:46:31;;;;;;;5.85;3.65;;;;;;;28.70;27.87;100941.94;5035314;28;20048;-71
2021/06/04 06:49:01;;;;;;;7.82;4.00;;;;;;;27.74;29.71;100937.84;5037586;28;20041;-75
2021/06/04 06:51:28;;;;;;;5.78;3.63;;;;;;;26.88;29.81;100936.56;5033816;28;20045;-71
2021/06/04 06:53:56;;;;;;;7.97;3.50;;;;;;;26.19;30.73;100940.09;5030122;28;20053;-74
2021/06/04 06:56:23;;;;;;;5.50;2.90;;;;;;;25.75;30.99;100934.75;5033922;28;20040;-76
2021/06/04 06:58:53;;;;;;;9.07;3.20;;;;;;;25.54;31.21;100938.28;5032219;28;20660;-75
2021/06/04 07:01:20;;;;;;;5.00;2.67;;;;;;;25.36;31.26;100941.44;5033969;28;20060;-75
2021/06/04 07:03:46;;;;;;;4.43;3.25;;;;;;;25.37;31.20;100935.00;5011120;28;20105;-77
2021/06/04 07:06:17;;;;;;;5.70;3.70;;;;;;;25.21;30.86;100940.63;5033546;28;20457;-72
2021/06/04 07:08:44;;;;;;;5.63;2.80;;;;;;;25.03;31.06;100946.44;5036327;28;20063;-79
2021/06/04 07:11:13;;;;;;;3.85;2.47;;;;;;;25.19;30.91;100946.22;5030054;28;20085;-78
2021/06/04 07:13:40;;;;;;;4.22;2.72;;;;;;;25.26;30.42;100946.28;5034124;28;20083;-77
2021/06/04 07:16:10;;;;;;;3.42;2.65;;;;;;;25.30;30.65;100944.91;5034849;28;20038;-76
2021/06/04 07:18:37;;;;;;;5.43;2.67;;;;;;;25.24;29.69;100951.06;5031972;28;20671;-78
2021/06/04 07:21:07;;;;;;;5.32;4.13;;;;;;;25.21;29.41;100948.72;5035684;28;20048;-77
2021/06/04 07:23:34;;;;;;;7.55;3.33;;;;;;;25.15;30.27;100949.47;5033666;28;20041;-76
2021/06/04 07:26:01;;;;;;;12.88;5.50;;;;;;;25.34;30.73;100942.66;5025513;28;20103;-75
2021/06/04 07:28:31;;;;;;;11.00;4.57;;;;;;;25.70;29.99;100942.59;5024804;28;20049;-76
2021/06/04 07:31:00;;;;;;;6.15;3.50;;;;;;;26.04;29.79;100940.22;5036012;28;20049;-76
2021/06/04 07:33:32;;;;;;;6.82;3.42;;;;;;;26.17;29.63;100948.44;5027338;28;20054;-80
2021/06/04 07:36:02;;;;;;;4.70;2.97;;;;;;;26.39;29.24;100946.47;5028837;28;20046;-77
2021/06/04 07:38:29;;;;;;;8.38;2.88;;;;;;;26.46;27.87;100946.53;5029043;28;20052;-76
2021/06/04 07:40:57;;;;;;;4.28;2.88;;;;;;;26.35;28.69;100939.81;5028071;28;20055;-76
2021/06/04 07:43:28;;;;;;;4.93;3.22;;;;;;;26.41;28.25;100941.69;5026149;28;20053;-76
2021/06/04 07:45:55;;;;;;;3.65;2.33;;;;;;;26.19;27.79;100940.09;5024647;28;20137;-77
2021/06/04 07:48:22;;;;;;;4.97;2.63;;;;;;;26.24;27.82;100943.91;5025247;28;20626;-74
2021/06/04 07:50:52;;;;;;;4.85;2.78;;;;;;;26.20;28.47;100937.22;5024490;28;20647;-74
2021/06/04 07:53:23;;;;;;;7.28;2.85;;;;;;;26.31;28.31;100936.66;5025577;28;20133;-76
2021/06/04 07:55:49;;;;;;;4.43;3.03;;;;;;;26.57;27.67;100939.72;5026174;28;20041;-76
2021/06/04 07:58:16;;;;;;;4.20;2.97;;;;;;;26.54;27.72;100940.09;5026347;28;20444;-75
2021/06/04 08:00:43;;;;;;;4.43;2.42;;;;;;;26.63;28.17;100928.97;5024809;28;20057;-75
2021/06/04 08:03:12;;;;;;;5.85;2.55;;;;;;;26.22;28.33;100931.59;5025846;28;20056;-76
2021/06/04 08:05:42;;;;;;;7.93;3.72;;;;;;;26.26;29.03;100930.16;5025999;28;20053;-75
2021/06/04 08:08:12;;;;;;;5.45;3.13;;;;;;;26.52;28.19;100934.88;5026254;28;20059;-75
2021/06/04 08:10:40;;;;;;;8.23;3.63;;;;;;;26.39;28.10;100935.66;5023924;28;20071;-75
2021/06/04 08:13:08;;;;;;;5.90;2.88;;;;;;;26.06;27.46;100930.03;5026589;28;20080;-76
2021/06/04 08:15:39;;;;;;;3.72;2.60;;;;;;;25.72;27.53;100918.06;5033891;28;20049;-75
2021/06/04 08:18:06;;;;;;;8.45;2.70;;;;;;;25.42;27.69;100922.75;5030887;28;20154;-74
2021/06/04 08:20:38;;;;;;;5.55;2.70;;;;;;;25.43;27.70;100919.88;5037905;28;20542;-76
2021/06/04 08:23:10;;;;;;;4.78;2.78;;;;;;;25.85;27.10;100920.03;5033664;28;20041;-77
2021/06/04 08:25:44;;;;;;;4.20;2.65;;;;;;;26.18;27.19;100919.47;5033626;28;20053;-74
2021/06/04 08:28:12;;;;;;;3.88;2.80;;;;;;;26.61;26.31;100916.63;5031422;28;20049;-75
2021/06/04 08:30:42;;;;;;;4.25;2.65;;;;;;;26.97;26.12;100927.19;5033040;28;20123;-78
2021/06/04 08:33:21;;;;;;;4.72;3.00;;;;;;;27.48;25.37;100916.94;5040664;28;20049;-75
2021/06/04 08:35:59;;;;;;;4.60;2.80;;;;;;;27.73;26.38;100920.72;5044380;28;20083;-76
2021/06/04 08:38:29;;;;;;;4.22;2.80;;;;;;;27.84;24.87;100914.66;5030860;28;20056;-75
2021/06/04 08:41:02;;;;;;;7.97;3.33;;;;;;;27.75;25.24;100913.22;5035379;28;20054;-78
2021/06/04 08:43:52;;;;;;;6.47;3.20;;;;;;;27.58;24.99;100917.38;5035440;28;20052;-80
2021/06/04 08:46:31;;;;;;;3.92;2.53;;;;;;;27.23;25.49;100912.91;5036094;28;20049;-76
2021/06/04 08:49:09;;;;;;;3.58;2.13;;;;;;;27.30;26.37;100909.38;5034208;28;20108;-74
2021/06/04 08:51:41;;;;;;;9.32;2.92;;;;;;;27.57;26.58;100916.53;5038868;28;20120;-75
2021/06/04 08:54:29;;;;;;;8.82;3.88;;;;;;;27.31;26.27;100906.47;5027513;28;20049;-80
2021/06/04 08:57:06;;;;;;;9.60;4.65;;;;;;;26.92;26.82;100902.59;5027610;28;20413;-81
2021/06/04 08:59:34;;;;;;;2.97;2.42;;;;;;;27.03;25.96;100907.44;5025547;28;20061;-78
2021/06/04 09:02:04;;;;;;;3.90;2.72;;;;;;;27.29;25.58;100899.59;5030149;28;20056;-80
2021/06/04 09:04:34;;;;;;;7.85;2.85;;;;;;;27.46;25.19;100900.88;5035348;28;20095;-76
2021/06/04 09:07:05;;;;;;;4.63;2.42;;;;;;;27.25;24.49;100902.69;5035060;28;20041;-77
2021/06/04 09:09:36;;;;;;;5.07;2.55;;;;;;;27.07;24.72;100899.72;5033620;28;20080;-77
2021/06/04 09:12:13;;;;;;;8.52;2.78;;;;;;;27.03;25.91;100906.59;5034526;28;20415;-76
2021/06/04 09:14:40;;;;;;;5.22;2.55;;;;;;;26.95;25.84;100906.78;5038083;28;20045;-78
2021/06/04 09:17:22;;;;;;;4.30;2.33;;;;;;;27.06;25.85;100904.31;5033242;28;20046;-80
2021/06/04 09:20:02;;;;;;;3.00;2.42;;;;;;;27.29;25.61;100905.03;5038111;28;20056;-79
2021/06/04 09:22:35;;;;;;;5.45;2.58;;;;;;;27.50;25.71;100895.88;5040767;28;20150;-79
2021/06/04 09:25:11;;;;;;;5.60;2.75;;;;;;;27.51;24.88;100898.34;5045875;28;20045;-81
2021/06/04 09:27:45;;;;;;;20.38;9.02;;;;;;;27.50;25.24;100898.59;5060284;28;20037;-81
2021/06/04 09:30:18;;;;;;;10.75;5.22;;;;;;;27.77;25.95;100894.81;5064763;28;20061;-79
2021/06/04 09:33:06;;;;;;;8.65;4.13;;;;;;;28.01;25.16;100890.66;5051845;28;20105;-80
2021/06/04 09:35:38;;;;;;;19.45;5.88;;;;;;;28.30;25.49;100891.22;5029944;28;20068;-78
2021/06/04 09:38:17;;;;;;;24.48;5.80;;;;;;;28.56;24.79;100892.25;5042207;28;20045;-78
2021/06/04 09:40:46;;;;;;;6.03;3.22;;;;;;;28.90;24.23;100887.47;5044462;28;20048;-78
2021/06/04 09:43:30;;;;;;;4.90;2.92;;;;;;;29.23;23.45;100881.06;5042123;28;20745;-78
2021/06/04 09:46:01;;;;;;;7.93;2.60;;;;;;;29.54;23.27;100878.28;5013438;28;20709;-80
2021/06/04 09:48:41;;;;;;;5.43;3.08;;;;;;;29.91;23.30;100885.78;5042439;28;20057;-79
2021/06/04 09:51:15;;;;;;;24.67;8.77;;;;;;;30.00;22.82;100884.41;5013049;28;20209;-79
2021/06/04 09:53:46;;;;;;;8.95;3.00;;;;;;;30.03;22.63;100885.84;5050041;28;20128;-79
2021/06/04 09:56:20;;;;;;;6.25;3.00;;;;;;;30.09;22.41;100882.25;5048958;28;20416;-78
2021/06/04 09:58:52;;;;;;;113.57;31.80;;;;;;;29.93;22.58;100870.84;5051735;28;20136;-82
2021/06/04 10:01:26;;;;;;;4.13;2.40;;;;;;;29.72;22.70;100871.25;5054034;28;20075;-81
2021/06/04 10:04:00;;;;;;;6.60;3.70;;;;;;;29.88;23.19;100880.75;5052853;28;20053;-80
2021/06/04 10:06:42;;;;;;;16.70;4.88;;;;;;;30.06;22.97;100872.63;5055857;28;20084;-78
2021/06/04 10:09:43;;;;;;;8.98;3.15;;;;;;;29.84;22.01;100871.38;5048447;28;20045;-78
2021/06/04 10:12:18;;;;;;;6.50;2.65;;;;;;;30.56;22.00;100871.66;4988124;28;20054;-78
2021/06/04 10:14:54;;;;;;;8.05;4.30;;;;;;;31.28;21.10;100870.91;4986768;28;20699;-79
2021/06/04 10:17:41;;;;;;;5.53;3.00;;;;;;;31.60;20.30;100871.47;4971577;28;20055;-78
2021/06/04 10:20:34;;;;;;;4.15;2.72;;;;;;;31.99;20.84;100866.34;4987383;28;20129;-77
2021/06/04 10:23:11;;;;;;;5.25;3.75;;;;;;;32.08;20.63;100869.59;4985622;28;20100;-79
2021/06/04 10:25:44;;;;;;;5.20;3.47;;;;;;;31.87;20.87;100862.78;4969748;28;20046;-79
2021/06/04 10:28:33;;;;;;;4.32;2.83;;;;;;;31.68;20.67;100864.81;4982489;28;20051;-78
2021/06/04 10:31:11;;;;;;;5.50;3.03;;;;;;;30.79;21.22;100861.91;4969487;28;20664;-78
2021/06/04 10:33:49;;;;;;;3.72;2.88;;;;;;;30.28;22.08;100861.28;4965309;28;20112;-78
2021/06/04 10:36:20;;;;;;;3.53;2.22;;;;;;;30.46;21.92;100863.19;4963168;28;20047;-76
2021/06/04 10:38:52;;;;;;;5.15;3.15;;;;;;;30.46;22.55;100857.75;4964751;28;20504;-75
2021/06/04 10:41:32;;;;;;;7.05;3.22;;;;;;;30.88;22.42;100866.84;4966345;28;20849;-78
2021/06/04 10:44:06;;;;;;;4.95;4.18;;;;;;;31.41;21.44;100856.22;4950120;28;20683;-76
2021/06/04 10:46:40;;;;;;;3.90;2.97;;;;;;;31.83;20.59;100865.16;4964697;28;20047;-77
2021/06/04 10:49:34;;;;;;;3.97;3.35;;;;;;;32.25;20.79;100863.38;4993438;28;20129;-77
2021/06/04 10:52:11;;;;;;;6.32;2.78;;;;;;;32.04;20.27;100860.22;5031751;28;20048;-76
2021/06/04 10:54:46;;;;;;;5.18;3.88;;;;;;;31.80;20.82;100854.72;5044851;28;20301;-78
2021/06/04 10:57:15;;;;;;;5.65;3.20;;;;;;;31.58;21.10;100849.00;5043435;28;20048;-79
2021/06/04 10:59:50;;;;;;;4.70;2.80;;;;;;;31.48;20.99;100850.66;5043050;28;20644;-78
2021/06/04 11:02:28;;;;;;;3.42;2.42;;;;;;;31.30;20.78;100849.66;5045849;28;20057;-77
2021/06/04 11:05:10;;;;;;;5.13;3.15;;;;;;;30.89;21.05;100848.56;5048648;28;20049;-78
2021/06/04 11:07:49;;;;;;;8.00;2.97;;;;;;;30.35;22.06;100853.06;5051341;28;20055;-78
2021/06/04 11:10:24;;;;;;;4.57;3.17;;;;;;;29.73;22.78;100845.69;5046414;28;20131;-76
2021/06/04 11:13:04;;;;;;;5.93;2.25;;;;;;;29.09;23.56;100847.63;5042155;28;20048;-77
2021/06/04 11:15:45;;;;;;;3.75;2.97;;;;;;;28.78;23.56;100852.00;5042429;28;20052;-76
2021/06/04 11:18:26;;;;;;;5.55;2.60;;;;;;;28.69;23.97;100847.88;5042794;28;20060;-75
2021/06/04 11:20:56;;;;;;;3.28;2.38;;;;;;;28.48;23.58;100840.81;5040164;28;20060;-74
2021/06/04 11:23:29;;;;;;;4.55;2.78;;;;;;;28.39;23.60;100838.31;5044268;28;20045;-76
2021/06/04 11:26:00;;;;;;;3.58;2.95;;;;;;;28.36;23.71;100830.63;5042222;28;20036;-76
2021/06/04 11:28:40;;;;;;;5.40;2.72;;;;;;;28.37;23.88;100829.56;5043317;28;20112;-74
2021/06/04 11:31:13;;;;;;;4.22;2.72;;;;;;;28.32;24.21;100831.25;5043151;28;20051;-74
2021/06/04 11:33:40;;;;;;;6.53;2.88;;;;;;;28.37;24.13;100824.13;5041707;28;20605;-74
2021/06/04 11:36:13;;;;;;;5.03;2.60;;;;;;;28.53;23.18;100821.97;5031489;28;20046;-75
2021/06/04 11:38:45;;;;;;;3.63;2.75;;;;;;;28.66;23.50;100816.50;5033089;28;20606;-75
2021/06/04 11:41:17;;;;;;;4.70;2.65;;;;;;;28.92;22.81;100812.81;5004652;28;20054;-78